American Integrity — WDD2875 — position and weather

sailwx.info

Track history (hours):
 
Tides and Currents Weather Stations Pressure Air Temp Water Temp Dewpoint Dewpoint Depression Visibility Wind Speed Wind Dir Waves Ship Positions

American Integrity

Owner: American Steamship Company, Williamsville, NY. More information available from US FCC via Universal Licensing System and Coast Guard Vessel Documentation Center.

Last reported at 2014-Nov-22 08:31 UTC. Time now 2014-Nov-23 03:43 UTC.
Position N 45°58' W 083°53'.

; draft 8 m.

Type: Cargo ship. MMSI: 367120990.

Date/timePositionNaut miles runAvg speedWind from/ knotsBaromVisibWave heightAir tempDewpointWater temp
2014-Nov-22 08:31N 45°58' W 083°53'1111.2
2014-Nov-22 07:33N 45°52' W 084°06'1111.1
2014-Nov-22 06:33N 45°51' W 084°22'1111.0
2014-Nov-22 05:33N 45°50' W 084°38'1110.9
2014-Nov-22 04:33N 45°50' W 084°53'1010.4
2014-Nov-22 03:34N 45°49' W 085°08'1111.0
2014-Nov-22 02:33N 45°39' W 085°16'1313.1
2014-Nov-22 01:33N 45°29' W 085°27'1313.1
2014-Nov-22 00:33N 45°18' W 085°38'1313.2
2014-Nov-21 23:33N 45°08' W 085°49'1312.8
2014-Nov-21 22:33N 44°59' W 086°02'  
2014-Nov-14 10:18N 46°08' W 084°01'10 9.7
2014-Nov-14 09:16N 45°59' W 083°53'  
Track history (hours):
 
Tides and Currents Weather Stations Pressure Air Temp Water Temp Dewpoint Dewpoint Depression Visibility Wind Speed Wind Dir Waves Ship Positions

American Integrity

Owner: American Steamship Company, Williamsville, NY. More information available from US FCC via Universal Licensing System and Coast Guard Vessel Documentation Center.

Last reported at 2014-Nov-22 08:31 UTC. Time now 2014-Nov-23 03:43 UTC.
Position N 45°58' W 083°53'.

; draft 8 m.

Type: Cargo ship. MMSI: 367120990.

Date/timePositionNaut miles runAvg speedWind from/ knotsBaromVisibWave heightAir tempDewpointWater temp
2014-Nov-22 08:31N 45°58' W 083°53'1111.2
2014-Nov-22 07:33N 45°52' W 084°06'1111.1
2014-Nov-22 06:33N 45°51' W 084°22'1111.0
2014-Nov-22 05:33N 45°50' W 084°38'1110.9
2014-Nov-22 04:33N 45°50' W 084°53'1010.4
2014-Nov-22 03:34N 45°49' W 085°08'1111.0
2014-Nov-22 02:33N 45°39' W 085°16'1313.1
2014-Nov-22 01:33N 45°29' W 085°27'1313.1
2014-Nov-22 00:33N 45°18' W 085°38'1313.2
2014-Nov-21 23:33N 45°08' W 085°49'1312.8
2014-Nov-21 22:33N 44°59' W 086°02'  
2014-Nov-14 10:18N 46°08' W 084°01'10 9.7
2014-Nov-14 09:16N 45°59' W 083°53'  

Dump ship's entire track history